Time;durP1;ratioP1;P1;durP2;ratioP2;P2;SDS_P1;SDS_P2;PMS_P1;PMS_P2;Temp;Humidity;BMP_temperature;BMP_pressure;BME280_temperature;BME280_humidity;BME280_pressure;Samples;Min_cycle;Max_cycle;Signal;HPM_P1;HPM_P2
2022/11/13 00:00:40;;;;;;;24.33;11.85;;;6.80;99.90;;;;;;5085269;28;20029;-74
2022/11/13 00:03:05;;;;;;;30.02;13.07;;;6.80;99.90;;;;;;5084282;28;20043;-74
2022/11/13 00:05:31;;;;;;;27.10;13.32;;;6.80;99.90;;;;;;5083317;28;20032;-78
2022/11/13 00:07:57;;;;;;;26.85;13.05;;;6.80;99.90;;;;;;5085290;28;20024;-74
2022/11/13 00:10:22;;;;;;;29.15;12.80;;;6.80;99.90;;;;;;5086231;28;20078;-76
2022/11/13 00:12:48;;;;;;;25.30;13.68;;;6.90;99.90;;;;;;5086284;28;20525;-76
2022/11/13 00:15:14;;;;;;;23.02;13.60;;;6.80;99.90;;;;;;5097087;28;20024;-76
2022/11/13 00:17:40;;;;;;;26.85;12.82;;;6.80;99.90;;;;;;5104437;28;20032;-75
2022/11/13 00:20:06;;;;;;;23.88;13.52;;;6.80;99.90;;;;;;5103905;28;20058;-75
2022/11/13 00:22:31;;;;;;;24.50;13.30;;;6.80;99.90;;;;;;5105515;28;20071;-77
2022/11/13 00:24:57;;;;;;;26.10;13.60;;;6.80;99.90;;;;;;5105542;28;20093;-75
2022/11/13 00:27:22;;;;;;;29.38;13.25;;;6.80;99.90;;;;;;5105429;28;20024;-77
2022/11/13 00:29:48;;;;;;;25.55;13.18;;;6.80;99.90;;;;;;5104511;28;20031;-75
2022/11/13 00:32:14;;;;;;;26.92;13.35;;;6.80;99.90;;;;;;5083134;28;20024;-76
2022/11/13 00:34:39;;;;;;;28.00;13.05;;;6.70;99.90;;;;;;5082730;28;20035;-77
2022/11/13 00:37:05;;;;;;;25.13;13.07;;;6.70;99.90;;;;;;5083614;28;20032;-78
2022/11/13 00:39:30;;;;;;;28.13;13.52;;;6.70;99.90;;;;;;5085189;28;20104;-78
2022/11/13 00:41:56;;;;;;;23.98;13.07;;;6.70;99.90;;;;;;5084811;28;20056;-78
2022/11/13 00:44:22;;;;;;;22.15;11.70;;;6.70;99.90;;;;;;5083472;28;20038;-78
2022/11/13 00:46:50;;;;;;;21.33;11.82;;;6.60;99.90;;;;;;5084922;28;20078;-78
2022/11/13 00:49:16;;;;;;;24.08;12.25;;;6.80;99.90;;;;;;5082306;28;20037;-75
2022/11/13 00:51:42;;;;;;;24.90;12.00;;;6.70;99.90;;;;;;5083646;28;20545;-77
2022/11/13 00:54:07;;;;;;;19.50;12.10;;;6.70;99.90;;;;;;5083338;28;21131;-77
2022/11/13 00:56:33;;;;;;;22.40;12.15;;;6.70;99.90;;;;;;5084374;28;20028;-77
2022/11/13 00:58:58;;;;;;;19.20;11.77;;;6.70;99.90;;;;;;5083346;28;20020;-76
2022/11/13 01:01:24;;;;;;;24.20;12.88;;;6.80;99.90;;;;;;5084637;28;20036;-77
2022/11/13 01:03:52;;;;;;;20.30;11.30;;;6.70;99.90;;;;;;5084417;28;20452;-78
2022/11/13 01:06:26;;;;;;;27.85;12.57;;;6.70;99.90;;;;;;5084338;28;20036;-77
2022/11/13 01:08:57;;;;;;;25.05;11.65;;;6.60;99.90;;;;;;5083998;28;20048;-75
2022/11/13 01:11:26;;;;;;;22.20;10.75;;;6.70;99.90;;;;;;5083241;28;20037;-75
2022/11/13 01:13:52;;;;;;;22.85;11.88;;;6.60;99.90;;;;;;5084533;28;20028;-77
2022/11/13 01:16:21;;;;;;;27.63;12.13;;;6.60;99.90;;;;;;5084342;28;20020;-77
2022/11/13 01:18:47;;;;;;;22.60;11.60;;;6.60;99.90;;;;;;5083385;28;20028;-77
2022/11/13 01:21:17;;;;;;;23.35;11.65;;;6.60;99.90;;;;;;5084243;28;20053;-76
2022/11/13 01:23:42;;;;;;;25.17;12.65;;;6.60;99.90;;;;;;5084258;28;20025;-77
2022/11/13 01:26:10;;;;;;;21.77;10.70;;;6.70;99.90;;;;;;5083013;28;20071;-79
2022/11/13 01:28:37;;;;;;;23.83;12.10;;;6.70;99.90;;;;;;5084545;28;20036;-77
2022/11/13 01:31:07;;;;;;;22.45;12.10;;;6.70;99.90;;;;;;5083996;28;20029;-77
2022/11/13 01:33:33;;;;;;;22.00;11.80;;;6.70;99.90;;;;;;5082733;28;20029;-78
2022/11/13 01:36:05;;;;;;;20.30;10.98;;;6.60;99.90;;;;;;5082779;28;20050;-78
2022/11/13 01:38:31;;;;;;;23.75;12.07;;;6.60;99.90;;;;;;5082615;28;20038;-77
2022/11/13 01:40:57;;;;;;;26.20;11.25;;;6.60;99.90;;;;;;5082845;28;20082;-78
2022/11/13 01:43:30;;;;;;;19.90;11.13;;;6.60;99.90;;;;;;5083151;28;20025;-80
2022/11/13 01:45:58;;;;;;;20.13;10.70;;;6.50;99.90;;;;;;5083999;28;20111;-77
2022/11/13 01:48:39;;;;;;;21.42;11.55;;;6.50;99.90;;;;;;5084326;28;20033;-78
2022/11/13 01:51:11;;;;;;;25.60;10.98;;;6.40;99.90;;;;;;5084018;28;20020;-75
2022/11/13 01:53:39;;;;;;;25.48;11.57;;;6.50;99.90;;;;;;5082752;28;20068;-77
2022/11/13 01:56:06;;;;;;;23.33;12.05;;;6.60;99.90;;;;;;5082592;28;20115;-77
2022/11/13 01:58:33;;;;;;;22.35;11.20;;;6.50;99.90;;;;;;5081910;28;20028;-76
2022/11/13 02:00:58;;;;;;;23.20;11.23;;;6.40;99.90;;;;;;5082499;28;20043;-78
2022/11/13 02:03:24;;;;;;;22.70;11.48;;;6.40;99.90;;;;;;5083959;28;20032;-75
2022/11/13 02:05:50;;;;;;;22.48;11.68;;;6.40;99.90;;;;;;5083215;28;20025;-78
2022/11/13 02:08:16;;;;;;;25.10;10.82;;;6.40;99.90;;;;;;5083728;28;20031;-78
2022/11/13 02:10:42;;;;;;;20.23;10.88;;;6.40;99.90;;;;;;5084003;28;20028;-76
2022/11/13 02:13:09;;;;;;;26.83;11.60;;;6.40;99.90;;;;;;5083407;28;20064;-77
2022/11/13 02:15:35;;;;;;;24.40;10.80;;;6.40;99.90;;;;;;5082632;28;20032;-77
2022/11/13 02:18:03;;;;;;;24.67;11.63;;;6.40;99.90;;;;;;5083902;28;20021;-78
2022/11/13 02:20:50;;;;;;;20.75;10.50;;;6.40;99.90;;;;;;5085104;28;20060;-77
2022/11/13 02:23:24;;;;;;;22.83;11.63;;;6.40;99.90;;;;;;5087807;28;20047;-76
2022/11/13 02:25:52;;;;;;;21.02;10.73;;;6.40;99.90;;;;;;5085921;28;20043;-77
2022/11/13 02:28:18;;;;;;;22.33;11.40;;;6.30;99.90;;;;;;5085564;28;20111;-77
2022/11/13 02:30:44;;;;;;;21.52;11.10;;;6.40;99.90;;;;;;5085452;28;20096;-76
2022/11/13 02:33:24;;;;;;;20.33;10.88;;;6.40;99.90;;;;;;5085128;28;20055;-77
2022/11/13 02:35:50;;;;;;;20.33;10.70;;;6.30;99.90;;;;;;5086550;28;20055;-80
2022/11/13 02:38:15;;;;;;;24.10;10.93;;;6.30;99.90;;;;;;5086012;28;20035;-77
2022/11/13 02:40:41;;;;;;;21.92;10.95;;;6.30;99.90;;;;;;5087016;28;20077;-78
2022/11/13 02:43:07;;;;;;;19.70;10.95;;;6.30;99.90;;;;;;5085504;28;20503;-77
2022/11/13 02:45:32;;;;;;;20.42;10.85;;;6.30;99.90;;;;;;5087321;28;20055;-76
2022/11/13 02:48:00;;;;;;;24.58;11.85;;;6.30;99.90;;;;;;5087006;28;20078;-78
2022/11/13 02:50:26;;;;;;;26.90;12.57;;;6.30;99.90;;;;;;5086710;28;20027;-75
2022/11/13 02:52:51;;;;;;;21.33;10.85;;;6.30;99.90;;;;;;5085694;28;20048;-78
2022/11/13 02:55:18;;;;;;;22.80;11.32;;;6.30;99.90;;;;;;5086926;28;20021;-78
2022/11/13 02:57:43;;;;;;;20.75;11.80;;;6.20;99.90;;;;;;5086871;28;20032;-78
2022/11/13 03:00:10;;;;;;;25.15;11.55;;;6.20;99.90;;;;;;5086872;28;20039;-76
2022/11/13 03:02:35;;;;;;;21.13;11.93;;;6.20;99.90;;;;;;5086434;28;20040;-78
2022/11/13 03:05:01;;;;;;;24.50;12.35;;;6.20;99.90;;;;;;5084960;28;20051;-77
2022/11/13 03:07:26;;;;;;;20.33;11.27;;;6.10;99.90;;;;;;5085238;28;20029;-77
2022/11/13 03:09:52;;;;;;;22.05;11.00;;;6.20;99.90;;;;;;5086694;28;20119;-78
2022/11/13 03:12:18;;;;;;;28.02;11.52;;;6.10;99.90;;;;;;5085483;28;20035;-76
2022/11/13 03:14:43;;;;;;;26.38;11.82;;;6.10;99.90;;;;;;5085336;28;20048;-77
2022/11/13 03:17:09;;;;;;;26.85;11.57;;;6.10;99.90;;;;;;5084973;28;20024;-76
2022/11/13 03:19:34;;;;;;;22.50;11.77;;;6.20;99.90;;;;;;5086141;28;20062;-76
2022/11/13 03:22:00;;;;;;;28.88;12.15;;;6.20;99.90;;;;;;5086328;28;20048;-77
2022/11/13 03:24:25;;;;;;;20.42;11.50;;;6.10;99.90;;;;;;5086104;28;20037;-77
2022/11/13 03:26:51;;;;;;;22.25;12.13;;;6.10;99.90;;;;;;5086375;28;20032;-76
2022/11/13 03:29:17;;;;;;;21.55;11.85;;;6.10;99.90;;;;;;5086683;28;20035;-75
2022/11/13 03:31:42;;;;;;;24.08;11.88;;;6.10;99.90;;;;;;5084240;28;20028;-77
2022/11/13 03:34:08;;;;;;;30.67;12.80;;;6.10;99.90;;;;;;5086077;28;20025;-77
2022/11/13 03:36:33;;;;;;;21.85;12.07;;;6.00;99.90;;;;;;5086051;28;20035;-77
2022/11/13 03:38:59;;;;;;;26.92;11.98;;;6.10;99.90;;;;;;5085943;28;20092;-77
2022/11/13 03:41:25;;;;;;;23.83;12.70;;;6.10;99.90;;;;;;5086037;28;20041;-77
2022/11/13 03:43:50;;;;;;;24.48;12.40;;;6.00;99.90;;;;;;5084897;28;20021;-79
2022/11/13 03:46:16;;;;;;;22.73;12.48;;;6.00;99.90;;;;;;5085848;28;20068;-77
2022/11/13 03:48:42;;;;;;;30.52;13.27;;;6.10;99.90;;;;;;5085635;28;20024;-77
2022/11/13 03:51:07;;;;;;;26.50;12.93;;;6.00;99.90;;;;;;5085623;28;20035;-78
2022/11/13 03:53:33;;;;;;;27.45;13.48;;;6.00;99.90;;;;;;5084119;28;20035;-76
2022/11/13 03:55:59;;;;;;;27.23;12.77;;;6.00;99.90;;;;;;5085760;28;20025;-78
2022/11/13 03:58:25;;;;;;;28.17;13.88;;;5.90;99.90;;;;;;5084634;28;20088;-78
2022/11/13 04:00:53;;;;;;;28.77;13.13;;;5.90;99.90;;;;;;5085340;28;20025;-78
2022/11/13 04:03:19;;;;;;;27.75;13.38;;;5.90;99.90;;;;;;5085616;28;20123;-78
2022/11/13 04:05:47;;;;;;;24.85;12.90;;;5.90;99.90;;;;;;5084902;28;20028;-77
2022/11/13 04:08:13;;;;;;;25.00;13.45;;;5.90;99.90;;;;;;5085050;28;20067;-79
2022/11/13 04:10:39;;;;;;;26.15;14.15;;;5.80;99.90;;;;;;5084153;28;20028;-78
2022/11/13 04:13:05;;;;;;;27.70;12.93;;;5.90;99.90;;;;;;5085263;28;20029;-77
2022/11/13 04:15:30;;;;;;;27.48;13.55;;;5.90;99.90;;;;;;5085274;28;20527;-78
2022/11/13 04:17:56;;;;;;;25.65;13.60;;;5.90;99.90;;;;;;5084048;28;20021;-79
2022/11/13 04:20:22;;;;;;;28.80;13.30;;;5.90;99.90;;;;;;5085135;28;20150;-78
2022/11/13 04:22:47;;;;;;;26.08;13.38;;;5.90;99.90;;;;;;5085351;28;20040;-80
2022/11/13 04:25:13;;;;;;;24.20;12.80;;;5.80;99.90;;;;;;5084273;28;20020;-76
2022/11/13 04:27:38;;;;;;;23.80;12.00;;;5.90;99.90;;;;;;5083791;28;20039;-78
2022/11/13 04:30:05;;;;;;;28.85;13.18;;;5.90;99.90;;;;;;5085238;28;20036;-78
2022/11/13 04:32:31;;;;;;;29.70;13.50;;;5.80;99.90;;;;;;5083946;28;20036;-80
2022/11/13 04:34:57;;;;;;;27.58;13.05;;;5.90;99.90;;;;;;5084826;28;20084;-79
2022/11/13 04:37:22;;;;;;;27.65;13.52;;;5.90;99.90;;;;;;5085451;28;20047;-80
2022/11/13 04:39:48;;;;;;;23.63;12.55;;;5.80;99.90;;;;;;5083905;28;20028;-80
2022/11/13 04:44:58;;;;;;;28.33;14.38;;;5.80;99.90;;;;;;5085103;28;20031;-79
2022/11/13 04:47:24;;;;;;;27.60;12.93;;;5.70;99.90;;;;;;5083246;28;20056;-80
2022/11/13 04:49:49;;;;;;;24.58;12.80;;;5.80;99.90;;;;;;5083551;28;20077;-78
2022/11/13 04:52:15;;;;;;;28.13;13.13;;;5.80;99.90;;;;;;5083742;28;20092;-79
2022/11/13 04:54:40;;;;;;;31.52;14.63;;;5.80;99.90;;;;;;5083425;28;20038;-78
2022/11/13 04:57:06;;;;;;;28.25;13.85;;;5.80;99.90;;;;;;5084605;28;20028;-79
2022/11/13 04:59:31;;;;;;;29.50;13.73;;;5.70;99.90;;;;;;5084557;28;20040;-78
2022/11/13 05:01:57;;;;;;;27.25;13.40;;;5.80;99.90;;;;;;5082969;28;20036;-78
2022/11/13 05:04:23;;;;;;;27.42;13.93;;;5.70;99.90;;;;;;5084302;28;20072;-78
2022/11/13 05:06:49;;;;;;;27.33;13.60;;;5.80;99.90;;;;;;5084294;28;20044;-79
2022/11/13 05:09:15;;;;;;;27.98;13.32;;;5.70;99.90;;;;;;5084272;28;20452;-77
2022/11/13 05:11:40;;;;;;;25.77;13.25;;;5.60;99.90;;;;;;5084539;28;20029;-78
2022/11/13 05:14:06;;;;;;;25.77;13.35;;;5.70;99.90;;;;;;5084250;28;20064;-78
2022/11/13 05:16:34;;;;;;;25.75;12.55;;;5.70;99.90;;;;;;5083998;28;20029;-77
2022/11/13 05:19:00;;;;;;;23.88;12.80;;;5.70;99.90;;;;;;5084317;28;20028;-78
2022/11/13 05:21:25;;;;;;;22.27;12.40;;;5.60;99.90;;;;;;5083996;28;20052;-78
2022/11/13 05:23:51;;;;;;;27.23;12.48;;;5.60;99.90;;;;;;5082626;28;20111;-79
2022/11/13 05:26:17;;;;;;;28.67;13.38;;;5.60;99.90;;;;;;5084404;28;20839;-78
2022/11/13 05:28:42;;;;;;;23.50;12.48;;;5.60;99.90;;;;;;5084291;28;20031;-79
2022/11/13 05:31:09;;;;;;;34.00;13.13;;;5.60;99.90;;;;;;5082394;28;20053;-79
2022/11/13 05:33:36;;;;;;;27.77;13.52;;;5.50;99.90;;;;;;5082944;28;20052;-79
2022/11/13 05:36:07;;;;;;;28.95;13.50;;;5.40;99.90;;;;;;5082664;28;20032;-77
2022/11/13 05:38:40;;;;;;;28.15;13.95;;;5.40;99.90;;;;;;5083794;28;20029;-78
2022/11/13 05:41:18;;;;;;;25.52;13.63;;;5.40;99.90;;;;;;5084020;28;20029;-78
2022/11/13 05:43:44;;;;;;;26.98;13.35;;;5.40;99.90;;;;;;5082709;28;20032;-76
2022/11/13 05:46:16;;;;;;;25.83;14.00;;;5.30;99.90;;;;;;5083978;28;20020;-75
2022/11/13 05:48:42;;;;;;;25.15;12.43;;;5.40;99.90;;;;;;5089663;28;20032;-76
2022/11/13 05:51:20;;;;;;;30.13;14.27;;;5.30;99.90;;;;;;5094287;28;20487;-77
2022/11/13 05:53:46;;;;;;;25.65;13.95;;;5.30;99.90;;;;;;5103070;28;20080;-78
2022/11/13 05:56:13;;;;;;;27.48;13.70;;;5.30;99.90;;;;;;5106388;28;20476;-77
2022/11/13 05:58:40;;;;;;;27.67;14.27;;;5.30;99.90;;;;;;5107755;28;20024;-78
2022/11/13 06:01:05;;;;;;;28.60;13.55;;;5.30;99.90;;;;;;5106910;28;20038;-77
2022/11/13 06:03:32;;;;;;;29.80;14.07;;;5.30;99.90;;;;;;5108180;28;20040;-77
2022/11/13 06:05:58;;;;;;;29.02;15.07;;;5.30;99.90;;;;;;5106277;28;20028;-79
2022/11/13 06:08:23;;;;;;;29.17;14.82;;;5.40;99.90;;;;;;5106916;28;20027;-78
2022/11/13 06:10:49;;;;;;;27.20;14.35;;;5.40;99.90;;;;;;5107045;28;20028;-77
2022/11/13 06:13:14;;;;;;;31.13;15.38;;;5.40;99.90;;;;;;5106960;28;20074;-76
2022/11/13 06:15:40;;;;;;;27.08;14.82;;;5.30;99.90;;;;;;5101576;28;20587;-81
2022/11/13 06:18:06;;;;;;;31.70;17.27;;;5.40;99.90;;;;;;5103704;28;20028;-82
2022/11/13 06:20:34;;;;;;;35.63;17.65;;;5.40;99.90;;;;;;5099635;28;20039;-83
2022/11/13 06:23:00;;;;;;;27.77;15.73;;;5.40;99.90;;;;;;5096712;28;20051;-82
2022/11/13 06:25:27;;;;;;;31.25;15.23;;;5.50;99.90;;;;;;5101888;28;20036;-82
2022/11/13 06:27:52;;;;;;;33.85;16.17;;;5.40;99.90;;;;;;5086489;28;20099;-84
2022/11/13 06:30:18;;;;;;;33.20;16.17;;;5.50;99.90;;;;;;5086848;28;20035;-81
2022/11/13 06:32:44;;;;;;;30.02;14.73;;;5.40;99.90;;;;;;5086965;28;20028;-83
2022/11/13 06:35:09;;;;;;;34.05;15.77;;;5.40;99.90;;;;;;5086585;28;20035;-83
2022/11/13 06:37:35;;;;;;;28.90;15.98;;;5.40;99.90;;;;;;5086389;28;20126;-83
2022/11/13 06:40:00;;;;;;;34.65;15.07;;;5.40;99.90;;;;;;5093783;28;20012;-83
2022/11/13 06:42:26;;;;;;;26.15;14.38;;;5.30;99.90;;;;;;5106272;28;20064;-84
2022/11/13 06:44:52;;;;;;;29.85;14.07;;;5.30;99.90;;;;;;5106745;28;20102;-83
2022/11/13 06:47:17;;;;;;;31.10;15.10;;;5.30;99.90;;;;;;5109149;28;20028;-83
2022/11/13 06:49:43;;;;;;;27.58;14.73;;;5.30;99.90;;;;;;5105618;28;20036;-82
2022/11/13 06:52:08;;;;;;;29.85;15.68;;;5.30;99.90;;;;;;5096305;28;20028;-82
2022/11/13 06:54:34;;;;;;;31.13;16.27;;;5.30;99.90;;;;;;5107590;28;20398;-83
2022/11/13 06:57:00;;;;;;;31.70;15.63;;;5.40;99.90;;;;;;5102226;28;20084;-81
2022/11/13 06:59:25;;;;;;;31.02;15.73;;;5.30;99.90;;;;;;5103157;28;20029;-83
2022/11/13 07:01:51;;;;;;;30.40;15.50;;;5.30;99.90;;;;;;5105182;28;20036;-81
2022/11/13 07:04:16;;;;;;;30.58;15.70;;;5.30;99.90;;;;;;5086905;28;20107;-80
2022/11/13 07:06:42;;;;;;;28.23;14.73;;;5.20;99.90;;;;;;5085808;28;20056;-82
2022/11/13 07:09:08;;;;;;;32.08;15.63;;;5.20;99.90;;;;;;5086201;28;20028;-81
2022/11/13 07:11:33;;;;;;;30.25;16.02;;;5.30;99.90;;;;;;5092287;28;20025;-80
2022/11/13 07:13:59;;;;;;;28.70;15.32;;;5.30;99.90;;;;;;5086563;28;20077;-81
2022/11/13 07:16:25;;;;;;;30.58;15.80;;;5.30;99.90;;;;;;5093433;28;20024;-81
2022/11/13 07:18:52;;;;;;;32.08;16.33;;;5.30;99.90;;;;;;5099141;28;20024;-82
2022/11/13 07:21:19;;;;;;;32.13;16.77;;;5.40;99.90;;;;;;5095985;28;20053;-81
2022/11/13 07:23:47;;;;;;;29.90;16.17;;;5.50;99.90;;;;;;5090755;28;20025;-83
2022/11/13 07:26:13;;;;;;;38.72;17.77;;;5.50;99.90;;;;;;5102308;28;20028;-81
2022/11/13 07:28:38;;;;;;;30.45;16.42;;;5.60;99.90;;;;;;5105711;28;20031;-82
2022/11/13 07:31:10;;;;;;;34.92;16.95;;;5.80;99.90;;;;;;5101993;28;20031;-82
2022/11/13 07:33:35;;;;;;;27.98;16.20;;;5.90;99.90;;;;;;5096580;28;20381;-80
2022/11/13 07:36:01;;;;;;;37.40;16.90;;;6.00;99.90;;;;;;5085169;28;20031;-80
2022/11/13 07:38:26;;;;;;;31.70;17.38;;;6.00;99.90;;;;;;5094526;28;20100;-81
2022/11/13 07:40:52;;;;;;;38.45;17.63;;;6.10;99.90;;;;;;5089456;28;20448;-80
2022/11/13 07:43:18;;;;;;;28.85;16.33;;;6.00;99.90;;;;;;5096659;28;20027;-81
2022/11/13 07:45:43;;;;;;;38.95;19.83;;;6.10;99.90;;;;;;5091513;28;20063;-82
2022/11/13 07:48:10;;;;;;;32.05;16.75;;;6.20;99.90;;;;;;5100403;28;20472;-81
2022/11/13 07:50:37;;;;;;;36.63;17.55;;;6.20;99.90;;;;;;5084875;28;20468;-83
2022/11/13 07:53:06;;;;;;;32.08;16.27;;;6.30;99.90;;;;;;5087107;28;20032;-82
2022/11/13 07:55:33;;;;;;;33.40;17.38;;;6.70;99.90;;;;;;5103607;28;20240;-83
2022/11/13 07:57:59;;;;;;;29.60;15.90;;;7.10;99.90;;;;;;5105388;28;20027;-82
2022/11/13 08:00:26;;;;;;;30.00;15.13;;;7.40;99.90;;;;;;5089276;28;20543;-84
2022/11/13 08:02:53;;;;;;;28.48;15.52;;;7.90;99.90;;;;;;5095730;28;20059;-82
2022/11/13 08:05:18;;;;;;;27.80;15.05;;;8.20;99.90;;;;;;5086799;28;20029;-82
2022/11/13 08:07:51;;;;;;;27.85;14.57;;;8.50;99.90;;;;;;5084516;28;20057;-82
2022/11/13 08:10:18;;;;;;;24.70;13.68;;;8.80;99.90;;;;;;5089950;28;20052;-80
2022/11/13 08:12:44;;;;;;;28.75;14.15;;;9.00;99.90;;;;;;5092789;28;20039;-82
2022/11/13 08:15:11;;;;;;;26.33;14.10;;;9.20;99.90;;;;;;5084082;28;20032;-81
2022/11/13 08:17:37;;;;;;;29.08;15.52;;;9.20;99.90;;;;;;5084208;28;20034;-81
2022/11/13 08:20:03;;;;;;;38.08;16.08;;;9.40;99.90;;;;;;5086590;28;20100;-83
2022/11/13 08:22:29;;;;;;;30.35;15.32;;;9.50;99.90;;;;;;5094153;28;20077;-81
2022/11/13 08:24:55;;;;;;;26.10;14.55;;;9.50;99.90;;;;;;5085215;28;20020;-82
2022/11/13 08:27:21;;;;;;;24.58;13.07;;;9.40;99.90;;;;;;5086376;28;20035;-80
2022/11/13 08:29:49;;;;;;;26.05;14.05;;;9.40;99.90;;;;;;5086242;28;20028;-81
2022/11/13 08:32:16;;;;;;;23.67;13.13;;;9.30;99.90;;;;;;5088044;28;20034;-80
2022/11/13 08:34:42;;;;;;;25.40;14.13;;;9.20;99.90;;;;;;5094527;28;20972;-80
2022/11/13 08:37:08;;;;;;;26.95;14.27;;;9.20;99.90;;;;;;5086016;28;20101;-79
2022/11/13 08:39:34;;;;;;;25.02;14.93;;;9.20;99.90;;;;;;5084906;28;20056;-80
2022/11/13 08:42:01;;;;;;;25.00;14.77;;;9.10;99.90;;;;;;5084223;28;20048;-80
2022/11/13 08:44:26;;;;;;;28.92;14.43;;;9.10;99.90;;;;;;5084554;28;20045;-78
2022/11/13 08:46:52;;;;;;;27.05;14.32;;;9.10;99.90;;;;;;5089961;28;20028;-78
2022/11/13 08:49:18;;;;;;;26.42;14.82;;;9.10;99.90;;;;;;5087109;28;20050;-78
2022/11/13 08:51:43;;;;;;;26.38;13.50;;;9.10;99.90;;;;;;5093059;28;20488;-78
2022/11/13 08:54:09;;;;;;;27.63;14.18;;;9.30;99.90;;;;;;5095320;28;20024;-78
2022/11/13 08:56:35;;;;;;;27.27;14.75;;;9.40;99.90;;;;;;5096109;28;20028;-80
2022/11/13 08:59:02;;;;;;;30.13;15.70;;;9.50;99.90;;;;;;5092171;28;20031;-79
2022/11/13 09:01:27;;;;;;;25.45;14.05;;;9.40;99.90;;;;;;5088958;28;20035;-79
2022/11/13 09:03:53;;;;;;;29.65;15.20;;;9.30;99.90;;;;;;5094295;28;20111;-79
2022/11/13 09:06:19;;;;;;;33.30;15.60;;;9.30;99.90;;;;;;5095606;28;20024;-81
2022/11/13 09:08:44;;;;;;;31.10;15.52;;;9.20;99.90;;;;;;5093762;28;20567;-79
2022/11/13 09:11:10;;;;;;;33.47;15.18;;;9.20;99.90;;;;;;5083516;28;20024;-78
2022/11/13 09:13:36;;;;;;;33.05;16.65;;;9.20;99.90;;;;;;5084829;28;20095;-77
2022/11/13 09:16:02;;;;;;;34.88;15.90;;;9.20;99.90;;;;;;5089196;28;20059;-79
2022/11/13 09:18:28;;;;;;;28.83;15.25;;;9.20;99.90;;;;;;5097305;28;20034;-78
2022/11/13 09:20:59;;;;;;;27.13;15.52;;;9.30;99.90;;;;;;5089320;28;20059;-77
2022/11/13 09:23:25;;;;;;;26.85;15.88;;;9.30;99.90;;;;;;5087578;28;20047;-77
2022/11/13 09:25:51;;;;;;;33.30;16.08;;;9.30;99.90;;;;;;5085891;28;20024;-77
2022/11/13 09:28:17;;;;;;;30.35;15.48;;;9.30;99.90;;;;;;5097627;28;20016;-78
2022/11/13 09:30:45;;;;;;;29.98;15.65;;;9.40;99.90;;;;;;5095309;28;20049;-76
2022/11/13 09:33:16;;;;;;;30.95;15.95;;;9.40;99.90;;;;;;5097502;28;20054;-77
2022/11/13 09:35:42;;;;;;;29.88;15.95;;;9.40;99.90;;;;;;5095847;28;20032;-78
2022/11/13 09:38:13;;;;;;;33.58;16.45;;;9.50;99.90;;;;;;5097222;28;20736;-80
2022/11/13 09:40:51;;;;;;;29.75;16.65;;;9.50;99.90;;;;;;5084115;28;20024;-79
2022/11/13 09:43:26;;;;;;;30.40;16.58;;;9.60;99.90;;;;;;5092338;28;20044;-78
2022/11/13 09:45:57;;;;;;;30.58;16.15;;;9.60;99.90;;;;;;5090197;28;20033;-75
2022/11/13 09:48:36;;;;;;;31.23;15.93;;;9.70;99.90;;;;;;5094613;28;20054;-78
2022/11/13 09:51:13;;;;;;;28.88;16.20;;;9.80;99.90;;;;;;5093641;28;20025;-77
2022/11/13 09:53:39;;;;;;;29.50;15.93;;;9.90;99.90;;;;;;5084664;28;20016;-76
2022/11/13 09:56:14;;;;;;;27.75;15.25;;;9.90;99.90;;;;;;5093119;28;20048;-75
2022/11/13 09:58:48;;;;;;;32.25;16.73;;;10.00;99.90;;;;;;5084179;28;20056;-77
2022/11/13 10:01:26;;;;;;;31.33;16.30;;;10.20;99.90;;;;;;5084395;28;20024;-76
2022/11/13 10:04:01;;;;;;;32.22;16.58;;;10.30;99.90;;;;;;5088822;28;20016;-78
2022/11/13 10:06:32;;;;;;;;;;;10.50;99.90;;;;;;5087035;28;20021;-75
2022/11/13 10:09:17;;;;;;;28.92;15.55;;;10.60;99.90;;;;;;5084626;28;19936;-75
2022/11/13 10:11:49;;;;;;;31.67;16.23;;;10.60;99.90;;;;;;5089045;28;20114;-73
2022/11/13 10:14:23;;;;;;;31.70;16.63;;;10.70;99.90;;;;;;5086729;28;20055;-74
2022/11/13 10:16:57;;;;;;;32.88;16.08;;;10.80;99.90;;;;;;5093037;28;20070;-78
2022/11/13 10:19:47;;;;;;;28.52;16.20;;;10.90;99.90;;;;;;5088633;28;20052;-76
2022/11/13 10:22:25;;;;;;;27.80;15.15;;;11.00;99.90;;;;;;5094948;28;20565;-74
2022/11/13 10:24:53;;;;;;;29.98;15.82;;;11.00;99.90;;;;;;5093771;28;20017;-73
2022/11/13 10:27:18;;;;;;;29.13;15.18;;;11.10;99.90;;;;;;5089147;28;20028;-76
2022/11/13 10:29:44;;;;;;;30.88;15.43;;;11.10;99.90;;;;;;5086223;28;20051;-75
2022/11/13 10:32:16;;;;;;;26.98;15.18;;;11.20;99.90;;;;;;5093934;28;20028;-74
2022/11/13 10:34:46;;;;;;;27.50;14.90;;;11.30;99.90;;;;;;5086222;28;20021;-73
2022/11/13 10:37:37;;;;;;;32.95;15.88;;;11.40;99.90;;;;;;5087418;28;20048;-77
2022/11/13 10:40:04;;;;;;;32.40;14.98;;;11.50;99.90;;;;;;5085225;28;20095;-72
2022/11/13 10:42:40;;;;;;;29.17;15.57;;;11.60;99.90;;;;;;5095866;28;20095;-76
2022/11/13 10:45:15;;;;;;;26.90;14.98;;;11.60;99.90;;;;;;5090391;28;20106;-76
2022/11/13 10:47:49;;;;;;;29.98;15.23;;;11.70;99.90;;;;;;5083281;28;20040;-75
2022/11/13 10:50:20;;;;;;;30.45;15.30;;;11.70;99.90;;;;;;5092038;28;20029;-76
2022/11/13 10:52:48;;;;;;;25.65;14.75;;;11.80;99.90;;;;;;5089602;28;20029;-74
2022/11/13 10:55:13;;;;;;;30.05;15.15;;;11.90;99.90;;;;;;5092363;28;20024;-74
2022/11/13 10:57:39;;;;;;;27.13;14.13;;;12.20;99.90;;;;;;5091281;28;20039;-74
2022/11/13 11:00:39;;;;;;;27.73;14.15;;;12.40;99.90;;;;;;5088104;28;20033;-74
2022/11/13 11:03:22;;;;;;;25.35;14.43;;;12.70;99.90;;;;;;5049245;28;20104;-74
2022/11/13 11:05:58;;;;;;;30.75;13.38;;;12.80;99.90;;;;;;5096318;28;20694;-75
2022/11/13 11:08:34;;;;;;;25.50;14.30;;;12.80;99.90;;;;;;5086322;28;20523;-75
2022/11/13 11:14:30;;;;;;;28.35;13.98;;;12.90;99.90;;;;;;5086625;28;20104;-75
2022/11/13 11:16:58;;;;;;;23.58;12.77;;;13.10;99.90;;;;;;5091047;28;20024;-77
2022/11/13 11:19:27;;;;;;;27.92;13.73;;;13.10;99.90;;;;;;5091734;28;20025;-78
2022/11/13 11:22:20;;;;;;;21.80;12.38;;;13.20;99.90;;;;;;5094991;28;20058;-73
2022/11/13 11:24:54;;;;;;;23.77;12.52;;;13.40;99.90;;;;;;5106731;28;20032;-76
2022/11/13 11:27:31;;;;;;;21.77;12.50;;;13.60;99.90;;;;;;5091550;28;20025;-75
2022/11/13 11:30:06;;;;;;;25.80;12.90;;;13.90;99.90;;;;;;5085101;28;20064;-75
2022/11/13 11:32:40;;;;;;;;;;;14.30;99.90;;;;;;5089769;28;20033;-75
2022/11/13 11:35:13;;;;;;;22.52;12.25;;;14.70;99.90;;;;;;5093454;28;19915;-76
2022/11/13 11:38:09;;;;;;;21.10;12.13;;;15.00;99.90;;;;;;5096506;28;20032;-77
2022/11/13 11:40:44;;;;;;;24.50;12.75;;;14.90;99.90;;;;;;5083998;28;20067;-75
2022/11/13 11:43:17;;;;;;;21.27;11.48;;;14.70;99.90;;;;;;5091090;28;20036;-75
2022/11/13 11:45:45;;;;;;;20.23;12.38;;;14.60;99.90;;;;;;5090148;28;20063;-77
2022/11/13 11:48:17;;;;;;;18.90;12.00;;;14.50;99.90;;;;;;5102151;28;20645;-77
2022/11/13 11:51:05;;;;;;;25.42;12.77;;;14.40;99.90;;;;;;5106488;28;20027;-75
2022/11/13 11:53:49;;;;;;;18.73;11.75;;;14.30;99.90;;;;;;5106746;28;20023;-76
2022/11/13 11:56:32;;;;;;;20.23;11.60;;;14.30;99.90;;;;;;5104840;28;20032;-76
2022/11/13 11:58:57;;;;;;;18.92;11.07;;;14.20;99.90;;;;;;5098363;28;20032;-77
2022/11/13 12:01:48;;;;;;;22.75;12.20;;;14.30;99.90;;;;;;5106250;28;20036;-77
2022/11/13 12:04:20;;;;;;;23.75;11.90;;;14.30;99.90;;;;;;5095247;28;20105;-74
2022/11/13 12:06:54;;;;;;;24.27;12.48;;;14.40;99.90;;;;;;5084158;28;20481;-76
2022/11/13 12:09:30;;;;;;;22.27;11.48;;;14.40;99.90;;;;;;5095192;28;20028;-77
2022/11/13 12:12:24;;;;;;;22.05;12.57;;;14.50;99.90;;;;;;5105963;28;20115;-76
2022/11/13 12:15:03;;;;;;;20.85;12.45;;;14.80;99.90;;;;;;5093202;28;20063;-74
2022/11/13 12:17:44;;;;;;;18.73;11.27;;;15.10;99.90;;;;;;5087160;28;20051;-76
2022/11/13 12:20:22;;;;;;;19.23;11.07;;;15.40;99.90;;;;;;5097915;28;20040;-75
2022/11/13 12:22:56;;;;;;;18.88;10.82;;;15.60;99.90;;;;;;5090737;28;20045;-75
2022/11/13 12:25:45;;;;;;;15.38;10.10;;;15.70;99.90;;;;;;5087997;28;20043;-77
2022/11/13 12:28:20;;;;;;;18.63;9.40;;;15.70;99.90;;;;;;5085177;28;20048;-75
2022/11/13 12:31:10;;;;;;;16.58;9.68;;;15.50;99.90;;;;;;5084012;28;20021;-77
2022/11/13 12:33:46;;;;;;;17.95;9.70;;;15.30;99.90;;;;;;5085873;28;20628;-77
2022/11/13 12:36:13;;;;;;;17.42;9.52;;;15.20;99.90;;;;;;5090257;28;20024;-76
2022/11/13 12:38:57;;;;;;;15.73;9.02;;;15.20;99.90;;;;;;5091396;28;20047;-75
2022/11/13 12:41:47;;;;;;;15.83;8.77;;;15.20;99.90;;;;;;5091597;28;20045;-75
2022/11/13 12:44:19;;;;;;;17.77;9.20;;;15.20;99.90;;;;;;5100953;28;20270;-76
2022/11/13 12:46:45;;;;;;;17.05;8.20;;;15.10;99.90;;;;;;5105164;28;20020;-76
2022/11/13 12:49:33;;;;;;;14.00;8.48;;;15.20;99.90;;;;;;5103864;28;20028;-76